BIRK

Reykjavik Airport

Reykjavik, Iceland
METAR BIRK 172200Z 26002KT 9999 FEW040 SCT140 BKN200 09/06 Q1011
Observed Flight Rules
Jul-17 @ 22:00 UTC (57 minutes ago) Visual Flight Rules
Wind Visibility Clouds
260° at 2 knots 10,000+ meters
  • Few at 4,000' AGL
  • Scattered at 14,000' AGL
  • Broken at 20,000' AGL
Temperatures Readings
Current 9°C / 48°F
Dewpoint 6°C / 43°F
Humidity 82%
Altimeter 29.85" Hg
Pressure 1011 hPa
Elevation 61
METAR BIRK 172200Z 26002KT 9999 FEW040 SCT140 BKN200 09/06 Q1011
Observed Flight Rules
Jul-17 @ 22:00 UTC
(57 minutes ago)
VFR
Wind Visibility
260° at 2 knots 10,000+ meters
Clouds
  • Few at 4,000' AGL
  • Scattered at 14,000' AGL
  • Broken at 20,000' AGL
Temperature Dewpoint
9°C / 48°F 6°C / 43°F
Humidity Altimeter Pressure
82% 29.85" Hg 1011 hPa